Time;durP1;ratioP1;P1;durP2;ratioP2;P2;SDS_P1;SDS_P2;PMS_P1;PMS_P2;Temp;Humidity;BMP_temperature;BMP_pressure;BME280_temperature;BME280_humidity;BME280_pressure;Samples;Min_cycle;Max_cycle;Signal;HPM_P1;HPM_P2
2022/11/12 00:07:18;;;;;;;;;;;6.90;99.90;;;;;;21005019;28;20336;-58
2022/11/12 00:17:38;;;;;;;;;;;6.90;99.90;;;;;;20979614;28;19992;-56
2022/11/12 00:28:08;;;;;;;;;;;6.90;99.90;;;;;;20978184;28;19912;-58
2022/11/12 00:38:29;;;;;;;;;;;6.80;99.90;;;;;;20978244;28;19909;-54
2022/11/12 00:48:50;;;;;;;;;;;6.90;99.90;;;;;;20987362;28;19911;-67
2022/11/12 00:59:10;;;;;;;;;;;6.90;99.90;;;;;;21075306;28;19911;-66
2022/11/12 01:09:31;;;;;;;;;;;6.90;99.90;;;;;;21136783;28;20436;-57
2022/11/12 01:19:52;;;;;;;;;;;6.90;99.90;;;;;;21141624;28;19912;-57
2022/11/12 01:30:12;;;;;;;;;;;6.80;99.90;;;;;;21141129;28;19911;-58
2022/11/12 01:40:33;;;;;;;;;;;6.90;99.90;;;;;;21139798;28;19960;-55
2022/11/12 01:50:55;;;;;;;;;;;6.90;99.90;;;;;;21139069;28;19916;-57
2022/11/12 02:01:16;;;;;;;;;;;6.90;99.90;;;;;;21130855;28;19934;-55
2022/11/12 02:11:36;;;;;;;;;;;7.00;99.90;;;;;;21117262;28;19915;-66
2022/11/12 02:21:56;;;;;;;;;;;7.00;99.90;;;;;;21137710;28;19908;-53
2022/11/12 02:32:17;;;;;;;;;;;6.90;99.90;;;;;;21137158;28;20159;-56
2022/11/12 02:42:38;;;;;;;;;;;6.90;99.90;;;;;;21117340;28;19934;-67
2022/11/12 02:52:59;;;;;;;;;;;7.00;99.90;;;;;;21083491;28;19933;-66
2022/11/12 03:03:20;;;;;;;;;;;7.00;99.90;;;;;;21136124;28;19907;-57
2022/11/12 03:13:41;;;;;;;;;;;6.90;99.90;;;;;;21135634;28;19920;-66
2022/11/12 03:24:01;;;;;;;;;;;7.30;99.90;;;;;;21129846;28;20417;-58
2022/11/12 03:34:22;;;;;;;;;;;7.30;99.90;;;;;;21151928;28;20377;-65
2022/11/12 03:44:43;;;;;;;;;;;7.10;99.90;;;;;;21149923;28;19912;-57
2022/11/12 03:55:04;;;;;;;;;;;7.00;99.90;;;;;;21148698;28;19916;-56
2022/11/12 04:26:49;;;;;;;;;;;7.10;99.90;;;;;;21146217;28;19915;-66
2022/11/12 04:37:09;;;;;;;;;;;7.00;99.90;;;;;;21145489;28;19957;-56
2022/11/12 04:47:35;;;;;;;;;;;7.20;99.90;;;;;;21084147;28;19911;-66
2022/11/12 04:57:55;;;;;;;;;;;7.20;99.90;;;;;;21133057;28;19919;-56
2022/11/12 05:08:16;;;;;;;;;;;7.30;99.90;;;;;;21142929;28;19920;-66
2022/11/12 05:18:36;;;;;;;;;;;7.50;99.90;;;;;;21142341;28;19908;-58
2022/11/12 05:28:57;;;;;;;;;;;7.80;99.90;;;;;;21140962;28;19957;-67
2022/11/12 05:39:18;;;;;;;;;;;8.60;99.90;;;;;;21139972;28;19960;-58
2022/11/12 05:49:39;;;;;;;;;;;8.60;99.90;;;;;;21139120;28;19915;-57
2022/11/12 05:59:59;;;;;;;;;;;8.60;99.90;;;;;;21139389;28;20368;-58
2022/11/12 06:10:20;;;;;;;;;;;8.90;99.90;;;;;;21105772;28;20019;-54
2022/11/12 06:20:40;;;;;;;;;;;9.60;98.90;;;;;;21137657;28;19953;-56
2022/11/12 06:31:01;;;;;;;;;;;9.80;99.90;;;;;;21137257;28;19912;-56
2022/11/12 06:41:22;;;;;;;;;;;9.80;99.90;;;;;;21128520;28;19920;-67
2022/11/12 06:51:42;;;;;;;;;;;9.80;98.10;;;;;;21073612;28;19945;-58
2022/11/12 07:02:04;;;;;;;;;;;10.60;95.40;;;;;;21153177;28;19907;-58
2022/11/12 07:12:25;;;;;;;;;;;11.00;96.60;;;;;;21152344;28;19941;-68
2022/11/12 07:22:48;;;;;;;;;;;11.30;96.20;;;;;;21133438;28;19911;-68
2022/11/12 07:33:09;;;;;;;;;;;11.30;97.30;;;;;;21150885;28;19912;-59
2022/11/12 07:43:31;;;;;;;;;;;11.70;94.80;;;;;;21149897;28;20361;-58
2022/11/12 07:53:53;;;;;;;;;;;12.50;93.20;;;;;;21145797;28;20293;-58
2022/11/12 08:04:15;;;;;;;;;;;12.70;93.20;;;;;;21110412;28;20714;-62
2022/11/12 08:14:36;;;;;;;;;;;13.00;92.50;;;;;;21143240;28;20327;-66
2022/11/12 08:24:56;;;;;;;;;;;13.20;90.60;;;;;;21141841;28;19912;-59
2022/11/12 08:35:17;;;;;;;;;;;13.60;90.00;;;;;;21141528;28;19957;-60
2022/11/12 08:45:39;;;;;;;;;;;13.90;86.30;;;;;;21120439;28;19916;-66
2022/11/12 08:55:59;;;;;;;;;;;14.20;86.40;;;;;;21080820;28;1244741;-60
2022/11/12 09:06:20;;;;;;;;;;;14.30;83.50;;;;;;21143322;28;19915;-65
2022/11/12 09:16:41;;;;;;;;;;;14.70;82.50;;;;;;21127598;28;20368;-65
2022/11/12 09:27:02;;;;;;;;;;;15.10;81.50;;;;;;21123264;28;19915;-65
2022/11/12 09:37:22;;;;;;;;;;;15.20;79.60;;;;;;21140461;28;19911;-65
2022/11/12 09:47:45;;;;;;;;;;;15.60;79.70;;;;;;21139707;28;19916;-62
2022/11/12 09:58:11;;;;;;;;;;;16.50;80.00;;;;;;21138725;28;19912;-61
2022/11/12 10:08:40;;;;;;;;;;;17.20;79.10;;;;;;21137913;28;19915;-59
2022/11/12 10:19:11;;;;;;;;;;;18.10;86.70;;;;;;21138088;28;19957;-61
2022/11/12 10:29:58;;;;;;;;;;;18.20;86.80;;;;;;21053010;28;19920;-60
2022/11/12 10:40:47;;;;;;;;;;;17.60;72.80;;;;;;21103347;28;19907;-64
2022/11/12 10:51:23;;;;;;;;;;;17.80;86.90;;;;;;20793632;28;19967;-64
2022/11/12 11:01:44;;;;;;;;;;;18.10;87.00;;;;;;20811027;28;20349;-65
2022/11/12 11:12:04;;;;;;;;;;;18.20;78.80;;;;;;20810442;28;19916;-65
2022/11/12 11:22:28;;;;;;;;;;;18.30;78.70;;;;;;20940796;28;19911;-63
2022/11/12 11:32:49;;;;;;;;;;;18.60;87.60;;;;;;21134650;28;19981;-59
2022/11/12 11:43:17;;;;;;;;;;;18.40;84.30;;;;;;21143490;28;19911;-58
2022/11/12 11:53:46;;;;;;;;;;;18.30;82.80;;;;;;21148518;28;19941;-65
2022/11/12 12:04:16;;;;;;;;;;;18.00;83.90;;;;;;21148360;28;19907;-58
2022/11/12 12:14:43;;;;;;;;;;;17.90;79.20;;;;;;21063542;28;19912;-66
2022/11/12 12:25:23;;;;;;;;;;;17.80;75.50;;;;;;21111402;28;19912;-60
2022/11/12 12:36:01;;;;;;;;;;;17.70;68.10;;;;;;21145768;28;20426;-67
2022/11/12 12:46:28;;;;;;;;;;;17.60;76.20;;;;;;21119382;28;19916;-61
2022/11/12 12:56:48;;;;;;;;;;;17.50;86.10;;;;;;21053883;28;19920;-68
2022/11/12 13:07:09;;;;;;;;;;;17.40;87.80;;;;;;21091448;28;19912;-68
2022/11/12 13:17:44;;;;;;;;;;;17.10;80.20;;;;;;21139815;28;19977;-59
2022/11/12 13:28:06;;;;;;;;;;;16.50;84.80;;;;;;21140882;28;19964;-69
2022/11/12 13:38:27;;;;;;;;;;;15.80;88.30;;;;;;21140356;28;20225;-69
2022/11/12 13:48:50;;;;;;;;;;;15.60;91.60;;;;;;21139946;28;19941;-58
2022/11/12 13:59:13;;;;;;;;;;;15.80;86.80;;;;;;21071856;28;20318;-59
2022/11/12 14:09:37;;;;;;;;;;;15.90;89.30;;;;;;21129862;28;19916;-69
2022/11/12 14:20:19;;;;;;;;;;;15.50;87.50;;;;;;21131855;28;19907;-58
2022/11/12 14:30:42;;;;;;;;;;;15.10;90.10;;;;;;21070156;28;19920;-67
2022/11/12 14:41:07;;;;;;;;;;;14.50;90.20;;;;;;21075069;28;19912;-68
2022/11/12 14:51:30;;;;;;;;;;;13.50;93.20;;;;;;21117322;28;19973;-67
2022/11/12 15:02:04;;;;;;;;;;;12.60;94.00;;;;;;21068916;28;19924;-67
2022/11/12 15:12:32;;;;;;;;;;;12.00;94.30;;;;;;21068484;28;19916;-66
2022/11/12 15:22:53;;;;;;;;;;;11.60;93.90;;;;;;21102130;28;19934;-66
2022/11/12 15:33:20;;;;;;;;;;;11.30;93.30;;;;;;21083701;28;20397;-56
2022/11/12 15:43:42;;;;;;;;;;;10.80;94.00;;;;;;21068599;28;19907;-53
2022/11/12 15:54:03;;;;;;;;;;;10.50;95.20;;;;;;21133216;28;19949;-66
2022/11/12 16:04:25;;;;;;;;;;;10.10;94.60;;;;;;21148744;28;20661;-67
2022/11/12 16:14:45;;;;;;;;;;;10.00;94.50;;;;;;21148088;28;19984;-67
2022/11/12 16:25:06;;;;;;;;;;;9.70;94.20;;;;;;21146483;28;19915;-57
2022/11/12 16:35:28;;;;;;;;;;;9.40;94.30;;;;;;21145978;28;19953;-57
2022/11/12 16:45:49;;;;;;;;;;;9.00;94.60;;;;;;21124551;28;19972;-66
2022/11/12 16:56:11;;;;;;;;;;;8.80;93.50;;;;;;21129293;28;19919;-66
2022/11/12 17:06:35;;;;;;;;;;;8.50;93.60;;;;;;21121543;28;19927;-66
2022/11/12 17:16:56;;;;;;;;;;;8.30;93.90;;;;;;21143278;28;19911;-55
2022/11/12 17:27:16;;;;;;;;;;;8.20;93.70;;;;;;21109672;28;19911;-55
2022/11/12 17:37:37;;;;;;;;;;;8.00;94.60;;;;;;21140254;28;20368;-54
2022/11/12 17:47:57;;;;;;;;;;;7.90;93.40;;;;;;21140278;28;19965;-56
2022/11/12 17:58:18;;;;;;;;;;;7.90;93.60;;;;;;21131990;28;20013;-67
2022/11/12 18:08:40;;;;;;;;;;;7.80;93.70;;;;;;21130256;28;19988;-56
2022/11/12 18:19:01;;;;;;;;;;;8.10;93.60;;;;;;21138499;28;19908;-53
2022/11/12 18:29:22;;;;;;;;;;;8.20;94.10;;;;;;21046650;28;20372;-67
2022/11/12 18:39:43;;;;;;;;;;;8.00;94.20;;;;;;21090931;28;20380;-53
2022/11/12 18:50:04;;;;;;;;;;;7.90;94.20;;;;;;21134797;28;19920;-52
2022/11/12 19:00:25;;;;;;;;;;;8.40;91.70;;;;;;21147632;28;19957;-67
2022/11/12 19:10:46;;;;;;;;;;;8.00;93.40;;;;;;21152959;28;19916;-68
2022/11/12 19:21:12;;;;;;;;;;;8.10;93.60;;;;;;21143655;28;20433;-67
2022/11/12 19:31:33;;;;;;;;;;;8.10;93.00;;;;;;21151764;28;19915;-63
2022/11/12 19:41:54;;;;;;;;;;;8.10;94.00;;;;;;21150470;28;19930;-53
2022/11/12 19:52:15;;;;;;;;;;;7.90;94.20;;;;;;21141130;28;19919;-66
2022/11/12 20:02:35;;;;;;;;;;;7.40;93.70;;;;;;21148273;28;19911;-67
2022/11/12 20:12:56;;;;;;;;;;;7.40;94.60;;;;;;21147889;28;20257;-56
2022/11/12 20:23:17;;;;;;;;;;;7.60;93.90;;;;;;21138846;28;19908;-68
2022/11/12 20:33:40;;;;;;;;;;;7.80;94.60;;;;;;21132732;28;19915;-55
2022/11/12 20:44:01;;;;;;;;;;;7.90;94.20;;;;;;21138850;28;19908;-68
2022/11/12 20:54:22;;;;;;;;;;;8.10;93.60;;;;;;21122636;28;20405;-68
2022/11/12 21:04:43;;;;;;;;;;;8.30;93.40;;;;;;21143651;28;19929;-56
2022/11/12 21:15:04;;;;;;;;;;;8.40;93.50;;;;;;21142208;28;19916;-56
2022/11/12 21:25:25;;;;;;;;;;;8.30;94.10;;;;;;21126977;28;20296;-69
2022/11/12 21:35:52;;;;;;;;;;;8.40;94.00;;;;;;21141185;28;19907;-69
2022/11/12 21:46:19;;;;;;;;;;;8.60;93.50;;;;;;21140736;28;19933;-69
2022/11/12 21:56:41;;;;;;;;;;;8.90;93.60;;;;;;21131202;28;19916;-66
2022/11/12 22:07:02;;;;;;;;;;;8.80;93.10;;;;;;21130497;28;20318;-55
2022/11/12 22:17:23;;;;;;;;;;;8.90;93.90;;;;;;21138610;28;19934;-68
2022/11/12 22:27:43;;;;;;;;;;;9.10;93.10;;;;;;21137238;28;19937;-69
2022/11/12 22:38:04;;;;;;;;;;;9.10;93.00;;;;;;21136787;28;19908;-68
2022/11/12 22:48:25;;;;;;;;;;;9.00;94.30;;;;;;21054662;28;19920;-54
2022/11/12 22:58:46;;;;;;;;;;;8.80;94.00;;;;;;21114730;28;19912;-52
2022/11/12 23:09:12;;;;;;;;;;;8.70;95.80;;;;;;21135593;28;19957;-57
2022/11/12 23:19:33;;;;;;;;;;;8.30;96.70;;;;;;21132513;28;19981;-68
2022/11/12 23:29:54;;;;;;;;;;;7.60;97.00;;;;;;21132974;28;19989;-56
2022/11/12 23:40:16;;;;;;;;;;;7.20;96.90;;;;;;21145955;28;19911;-53
2022/11/12 23:50:36;;;;;;;;;;;7.40;97.60;;;;;;21149353;28;19916;-69
